Time;durP1;ratioP1;P1;durP2;ratioP2;P2;SDS_P1;SDS_P2;PMS_P1;PMS_P2;Temp;Humidity;BMP_temperature;BMP_pressure;BME280_temperature;BME280_humidity;BME280_pressure;Samples;Min_cycle;Max_cycle;Signal;HPM_P1;HPM_P2
2023/05/12 00:00:56;;;;;;;1999.90;999.90;;;13.40;99.90;;;;;;5033044;28;20451;-66
2023/05/12 00:03:22;;;;;;;1999.90;999.90;;;13.40;99.90;;;;;;5033298;28;20291;-66
2023/05/12 00:05:48;;;;;;;1999.90;999.90;;;13.50;99.90;;;;;;5033331;28;20910;-66
2023/05/12 00:08:14;;;;;;;1999.90;999.90;;;13.40;99.90;;;;;;5033186;28;20523;-66
2023/05/12 00:10:39;;;;;;;1999.90;999.90;;;13.40;99.90;;;;;;5033007;28;20691;-66
2023/05/12 00:13:06;;;;;;;1999.90;999.90;;;13.40;99.90;;;;;;5073986;23;20220;-67
2023/05/12 00:15:31;;;;;;;1999.90;999.90;;;13.40;99.90;;;;;;5033099;28;20162;-68
2023/05/12 00:17:57;;;;;;;1999.90;999.90;;;13.30;99.90;;;;;;5031936;28;20411;-68
2023/05/12 00:20:23;;;;;;;1999.90;999.90;;;13.20;99.90;;;;;;5032989;28;20287;-68
2023/05/12 00:22:48;;;;;;;1999.90;999.90;;;13.20;99.90;;;;;;5032555;28;20740;-68
2023/05/12 00:25:14;;;;;;;1999.90;999.90;;;13.20;99.90;;;;;;5032954;28;20169;-68
2023/05/12 00:27:39;;;;;;;1999.90;999.90;;;13.20;99.90;;;;;;5032847;28;20170;-68
2023/05/12 00:30:06;;;;;;;1999.90;999.90;;;13.20;99.90;;;;;;5032851;28;20186;-69
2023/05/12 00:32:32;;;;;;;1999.90;999.90;;;13.20;99.90;;;;;;5050074;28;20211;-69
2023/05/12 00:34:57;;;;;;;1999.90;999.90;;;13.20;99.90;;;;;;5052673;28;20419;-69
2023/05/12 00:37:23;;;;;;;1999.90;999.90;;;13.10;99.90;;;;;;5052559;28;20222;-69
2023/05/12 00:39:48;;;;;;;1999.90;999.90;;;13.10;99.90;;;;;;5052415;28;20201;-69
2023/05/12 00:42:14;;;;;;;1999.90;999.90;;;13.20;99.90;;;;;;5052153;28;20189;-68
2023/05/12 00:44:40;;;;;;;1999.90;999.90;;;13.20;99.90;;;;;;5052514;28;20264;-69
2023/05/12 00:47:06;;;;;;;1999.90;999.90;;;13.20;99.90;;;;;;5052538;28;20183;-69
2023/05/12 00:49:32;;;;;;;1999.90;999.90;;;13.30;99.90;;;;;;5052304;28;20491;-69
2023/05/12 00:51:58;;;;;;;1999.90;999.90;;;13.30;99.90;;;;;;5052001;28;20340;-69
2023/05/12 00:54:25;;;;;;;1999.90;999.90;;;13.30;99.90;;;;;;5052245;28;20416;-69
2023/05/12 00:56:51;;;;;;;1999.90;999.90;;;13.30;99.90;;;;;;5052199;28;20437;-69
2023/05/12 00:59:16;;;;;;;1999.90;999.90;;;13.30;99.90;;;;;;5052023;28;20459;-69
2023/05/12 01:01:42;;;;;;;1999.90;999.90;;;13.50;99.90;;;;;;5051908;28;20246;-69
2023/05/12 01:04:08;;;;;;;1999.90;999.90;;;13.30;99.90;;;;;;5052216;28;20193;-69
2023/05/12 01:06:44;;;;;;;1999.90;999.90;;;13.30;99.90;;;;;;5051971;28;20486;-69
2023/05/12 01:09:10;;;;;;;1999.90;999.90;;;13.30;99.90;;;;;;5052048;28;20175;-69
2023/05/12 01:11:36;;;;;;;1999.90;999.90;;;13.30;99.90;;;;;;5051658;28;20451;-69
2023/05/12 01:14:02;;;;;;;1999.90;999.90;;;13.30;99.90;;;;;;5051943;28;20455;-69
2023/05/12 01:16:34;;;;;;;1999.90;999.90;;;13.30;99.90;;;;;;5051887;28;20411;-69
2023/05/12 01:19:04;;;;;;;1999.90;999.90;;;13.30;99.90;;;;;;5051857;28;20208;-69
2023/05/12 01:21:30;;;;;;;1999.90;999.90;;;13.30;99.90;;;;;;5051400;28;20411;-69
2023/05/12 01:24:00;;;;;;;1999.90;999.90;;;13.30;99.90;;;;;;5051756;28;20433;-69
2023/05/12 01:26:28;;;;;;;1999.90;999.90;;;13.30;99.90;;;;;;5051666;28;20957;-69
2023/05/12 01:28:55;;;;;;;1999.90;999.90;;;13.30;99.90;;;;;;5051662;28;20414;-69
2023/05/12 01:31:21;;;;;;;1999.90;999.90;;;13.20;99.90;;;;;;5051597;28;20912;-69
2023/05/12 01:33:47;;;;;;;1999.90;999.90;;;13.20;99.90;;;;;;5051659;28;20857;-69
2023/05/12 01:36:12;;;;;;;1999.90;999.90;;;13.30;99.90;;;;;;5051716;28;20439;-68
2023/05/12 01:38:38;;;;;;;1999.90;999.90;;;13.20;99.90;;;;;;5051707;28;20280;-69
2023/05/12 01:41:04;;;;;;;1999.90;999.90;;;13.20;99.90;;;;;;5051425;28;20249;-69
2023/05/12 01:43:29;;;;;;;1999.90;999.90;;;13.30;99.90;;;;;;5051633;28;20225;-69
2023/05/12 01:45:55;;;;;;;1999.90;999.90;;;13.30;99.90;;;;;;5051708;28;20309;-69
2023/05/12 01:48:20;;;;;;;1999.90;999.90;;;13.30;99.90;;;;;;5051592;28;20180;-69
2023/05/12 01:50:46;;;;;;;1999.90;999.90;;;13.30;99.90;;;;;;5051511;28;20172;-69
2023/05/12 01:53:11;;;;;;;1999.90;999.90;;;13.30;99.90;;;;;;5051288;28;20186;-70
2023/05/12 01:55:38;;;;;;;1999.90;999.90;;;13.30;99.90;;;;;;5051548;28;20168;-70
2023/05/12 01:58:03;;;;;;;1999.90;999.90;;;13.30;99.90;;;;;;5051534;28;20188;-70
2023/05/12 02:00:29;;;;;;;1999.90;999.90;;;13.30;99.90;;;;;;5051426;28;20547;-70
2023/05/12 02:02:55;;;;;;;1999.90;999.90;;;13.30;99.90;;;;;;5051048;28;20209;-69
2023/05/12 02:05:21;;;;;;;1999.90;999.90;;;13.30;99.90;;;;;;5051395;28;20235;-69
2023/05/12 02:07:47;;;;;;;1999.90;999.90;;;13.30;99.90;;;;;;5051482;28;20219;-69
2023/05/12 02:10:12;;;;;;;1999.90;999.90;;;13.20;99.90;;;;;;5051454;28;20426;-69
2023/05/12 02:12:38;;;;;;;1999.90;999.90;;;13.20;99.90;;;;;;5050917;28;20447;-69
2023/05/12 02:15:04;;;;;;;1999.90;999.90;;;13.20;99.90;;;;;;5051376;28;20222;-69
2023/05/12 02:17:30;;;;;;;1999.90;999.90;;;13.20;99.90;;;;;;5051234;28;20560;-68
2023/05/12 02:19:55;;;;;;;1999.90;999.90;;;13.10;99.90;;;;;;5051265;28;20453;-68
2023/05/12 02:22:21;;;;;;;1999.90;999.90;;;13.10;99.90;;;;;;5050988;28;20191;-69
2023/05/12 02:24:46;;;;;;;1999.90;999.90;;;13.00;99.90;;;;;;5051428;28;20596;-69
2023/05/12 02:27:12;;;;;;;1999.90;999.90;;;13.00;99.90;;;;;;5051224;28;20181;-68
2023/05/12 02:29:38;;;;;;;1999.90;999.90;;;13.00;99.90;;;;;;5051127;28;20186;-69
2023/05/12 02:32:04;;;;;;;1999.90;999.90;;;13.00;99.90;;;;;;5050891;28;20197;-68
2023/05/12 02:34:30;;;;;;;1999.90;999.90;;;13.00;99.90;;;;;;5051349;28;20182;-69
2023/05/12 02:36:55;;;;;;;1999.90;999.90;;;13.00;99.90;;;;;;5051197;28;20499;-69
2023/05/12 02:39:21;;;;;;;1999.90;999.90;;;13.00;99.90;;;;;;5051114;28;20272;-70
2023/05/12 02:41:46;;;;;;;1999.90;999.90;;;13.30;99.90;;;;;;5053234;28;20169;-70
2023/05/12 02:44:12;;;;;;;1999.90;999.90;;;13.10;99.90;;;;;;5054685;28;20173;-69
2023/05/12 02:46:37;;;;;;;1999.90;999.90;;;13.10;99.90;;;;;;5054658;28;20646;-69
2023/05/12 02:49:03;;;;;;;1999.90;999.90;;;13.20;99.90;;;;;;5054584;28;20180;-69
2023/05/12 02:51:29;;;;;;;1999.90;999.90;;;13.10;99.90;;;;;;5054263;28;20178;-69
2023/05/12 02:53:55;;;;;;;1999.90;999.90;;;13.20;99.90;;;;;;5054513;28;20281;-69
2023/05/12 02:56:21;;;;;;;1999.90;999.90;;;13.20;99.90;;;;;;5054570;28;20456;-69
2023/05/12 02:58:47;;;;;;;1999.90;999.90;;;13.30;99.90;;;;;;5054465;28;20201;-69
2023/05/12 03:01:13;;;;;;;1999.90;999.90;;;13.30;99.90;;;;;;5054111;28;20438;-69
2023/05/12 03:03:39;;;;;;;1999.90;999.90;;;13.20;99.90;;;;;;5054139;28;20182;-69
2023/05/12 03:06:05;;;;;;;1999.90;999.90;;;13.20;99.90;;;;;;5054526;28;20453;-69
2023/05/12 03:08:31;;;;;;;1999.90;999.90;;;13.30;99.90;;;;;;5054279;28;20643;-69
2023/05/12 03:10:56;;;;;;;1999.90;999.90;;;13.30;99.90;;;;;;5053966;28;20406;-68
2023/05/12 03:13:22;;;;;;;1999.90;999.90;;;13.40;99.90;;;;;;5054027;28;20217;-69
2023/05/12 03:15:47;;;;;;;1999.90;999.90;;;13.40;99.90;;;;;;5054157;28;20554;-69
2023/05/12 03:18:13;;;;;;;1999.90;999.90;;;13.50;99.90;;;;;;5054029;28;20699;-69
2023/05/12 03:20:39;;;;;;;1999.90;999.90;;;13.50;99.90;;;;;;5054004;28;20546;-69
2023/05/12 03:23:04;;;;;;;1999.90;999.90;;;13.60;99.90;;;;;;5053675;28;20197;-69
2023/05/12 03:25:30;;;;;;;1999.90;999.90;;;13.50;99.90;;;;;;5054225;28;20249;-69
2023/05/12 03:27:56;;;;;;;1999.90;999.90;;;13.40;99.90;;;;;;5053979;28;20171;-69
2023/05/12 03:30:21;;;;;;;1999.90;999.90;;;13.40;99.90;;;;;;5053830;28;20183;-69
2023/05/12 03:32:47;;;;;;;1999.90;999.90;;;13.30;99.90;;;;;;5053369;28;20462;-69
2023/05/12 03:35:13;;;;;;;1999.90;999.90;;;13.20;99.90;;;;;;5053791;28;20178;-68
2023/05/12 03:37:38;;;;;;;1999.90;999.90;;;13.10;99.90;;;;;;5053809;28;20169;-68
2023/05/12 03:40:05;;;;;;;1999.90;999.90;;;13.10;99.90;;;;;;5053672;28;20733;-70
2023/05/12 03:42:30;;;;;;;1999.90;999.90;;;13.10;99.90;;;;;;5053363;28;20604;-70
2023/05/12 03:44:56;;;;;;;1999.90;999.90;;;13.00;99.90;;;;;;5053595;28;20411;-69
2023/05/12 03:47:22;;;;;;;1999.90;999.90;;;13.00;99.90;;;;;;5053502;28;20520;-69
2023/05/12 03:49:47;;;;;;;1999.90;999.90;;;13.00;99.90;;;;;;5053479;28;20161;-69
2023/05/12 03:52:13;;;;;;;1999.90;999.90;;;13.00;99.90;;;;;;5052866;28;20242;-69
2023/05/12 03:54:38;;;;;;;1999.90;999.90;;;13.00;99.90;;;;;;5053347;28;20197;-69
2023/05/12 03:57:04;;;;;;;1999.90;999.90;;;13.00;99.90;;;;;;5053442;28;20169;-69
2023/05/12 03:59:31;;;;;;;1999.90;999.90;;;13.10;99.90;;;;;;5053177;28;20207;-69
2023/05/12 04:01:56;;;;;;;1999.90;999.90;;;13.10;99.90;;;;;;5052989;28;20498;-69
2023/05/12 04:04:22;;;;;;;1999.90;999.90;;;13.20;99.90;;;;;;5053215;28;20414;-70
2023/05/12 04:06:48;;;;;;;1999.90;999.90;;;13.20;99.90;;;;;;5053148;28;20460;-69
2023/05/12 04:09:15;;;;;;;1999.90;999.90;;;13.20;99.90;;;;;;5053117;28;20165;-69
2023/05/12 04:11:40;;;;;;;1999.90;999.90;;;13.30;99.90;;;;;;5052661;28;20206;-69
2023/05/12 04:14:06;;;;;;;1999.90;999.90;;;13.30;99.90;;;;;;5053049;28;20526;-69
2023/05/12 04:16:31;;;;;;;1999.90;999.90;;;13.40;99.90;;;;;;5052885;28;20170;-69
2023/05/12 04:18:57;;;;;;;1999.90;999.90;;;13.50;99.90;;;;;;5052870;28;20201;-69
2023/05/12 04:21:22;;;;;;;1999.90;999.90;;;13.50;99.90;;;;;;5052694;28;20173;-69
2023/05/12 04:23:52;;;;;;;1999.90;999.90;;;13.50;99.90;;;;;;5052659;28;20242;-69
2023/05/12 04:26:18;;;;;;;1999.90;999.90;;;13.50;99.90;;;;;;5052781;28;20821;-68
2023/05/12 04:28:43;;;;;;;1999.90;999.90;;;13.60;99.90;;;;;;5052749;28;20413;-69
2023/05/12 04:31:09;;;;;;;1999.90;999.90;;;13.60;99.90;;;;;;5052339;28;20277;-69
2023/05/12 04:33:34;;;;;;;1999.90;999.90;;;13.60;99.90;;;;;;5052581;28;20261;-70
2023/05/12 04:36:00;;;;;;;1999.90;999.90;;;13.60;99.90;;;;;;5052637;28;20162;-69
2023/05/12 04:38:26;;;;;;;1999.90;999.90;;;13.60;99.90;;;;;;5052528;28;20172;-70
2023/05/12 04:40:59;;;;;;;1999.90;999.90;;;13.60;99.90;;;;;;5052393;28;20174;-69
2023/05/12 04:43:26;;;;;;;1999.90;999.90;;;13.60;99.90;;;;;;5052421;28;20198;-68
2023/05/12 04:45:54;;;;;;;1999.90;999.90;;;13.60;99.90;;;;;;5052428;28;20493;-69
2023/05/12 04:48:20;;;;;;;1999.90;999.90;;;13.60;99.90;;;;;;5052458;28;20404;-68
2023/05/12 04:50:47;;;;;;;1999.90;999.90;;;13.60;99.90;;;;;;5052469;28;20499;-69
2023/05/12 04:53:14;;;;;;;1999.90;999.90;;;13.60;99.90;;;;;;5052068;28;20993;-68
2023/05/12 04:55:39;;;;;;;1999.90;999.90;;;13.60;99.90;;;;;;5052275;28;20402;-69
2023/05/12 04:58:05;;;;;;;1999.90;999.90;;;13.70;99.90;;;;;;5052206;28;20463;-69
2023/05/12 05:00:30;;;;;;;1999.90;999.90;;;13.70;99.90;;;;;;5052156;28;20222;-68
2023/05/12 05:02:56;;;;;;;1999.90;999.90;;;13.80;99.90;;;;;;5051495;28;20191;-68
2023/05/12 05:05:22;;;;;;;1999.90;999.90;;;13.90;99.90;;;;;;5052049;28;20554;-68
2023/05/12 05:07:47;;;;;;;1999.90;999.90;;;13.90;99.90;;;;;;5052007;28;20411;-68
2023/05/12 05:10:13;;;;;;;1999.90;999.90;;;14.00;99.90;;;;;;5052062;28;20537;-69
2023/05/12 05:12:39;;;;;;;1999.90;999.90;;;14.00;99.90;;;;;;5051322;28;20214;-70
2023/05/12 05:15:05;;;;;;;1999.90;999.90;;;14.00;99.90;;;;;;5051914;28;20600;-70
2023/05/12 05:17:30;;;;;;;1999.90;999.90;;;14.00;99.90;;;;;;5052025;28;20240;-70
2023/05/12 05:19:56;;;;;;;1999.90;999.90;;;14.10;99.90;;;;;;5051770;28;20454;-69
2023/05/12 05:22:21;;;;;;;1999.90;999.90;;;14.00;99.90;;;;;;5051571;28;20225;-68
2023/05/12 05:24:47;;;;;;;1999.90;999.90;;;14.10;99.90;;;;;;5051875;28;20218;-69
2023/05/12 05:27:13;;;;;;;1999.90;999.90;;;14.10;99.90;;;;;;5051811;28;20235;-69
2023/05/12 05:29:38;;;;;;;1999.90;999.90;;;14.00;99.90;;;;;;5051757;28;20176;-68
2023/05/12 05:32:04;;;;;;;1999.90;999.90;;;14.00;99.90;;;;;;5051639;28;20195;-69
2023/05/12 05:34:30;;;;;;;1999.90;999.90;;;14.10;99.90;;;;;;5051730;28;20225;-69
2023/05/12 05:36:55;;;;;;;1999.90;999.90;;;14.10;99.90;;;;;;5051830;28;20429;-69
2023/05/12 05:39:21;;;;;;;1999.90;999.90;;;14.20;99.90;;;;;;5051806;28;20198;-68
2023/05/12 05:41:47;;;;;;;1999.90;999.90;;;14.20;99.90;;;;;;5051378;28;20169;-68
2023/05/12 05:44:12;;;;;;;1999.90;999.90;;;14.20;99.90;;;;;;5051592;28;20439;-68
2023/05/12 05:46:38;;;;;;;1999.90;999.90;;;14.20;99.90;;;;;;5051596;28;20222;-68
2023/05/12 05:49:03;;;;;;;1999.90;999.90;;;14.30;99.90;;;;;;5051678;28;20185;-69
2023/05/12 05:51:30;;;;;;;1999.90;999.90;;;14.20;99.90;;;;;;5051343;28;20180;-68
2023/05/12 05:53:55;;;;;;;1999.90;999.90;;;14.30;99.90;;;;;;5051523;28;20214;-68
2023/05/12 05:56:21;;;;;;;1999.90;999.90;;;14.30;99.90;;;;;;5051533;28;20493;-68
2023/05/12 05:58:47;;;;;;;1999.90;999.90;;;14.30;99.90;;;;;;5051687;28;20216;-69
2023/05/12 06:01:12;;;;;;;1999.90;999.90;;;14.30;99.90;;;;;;5051310;28;20405;-69
2023/05/12 06:03:38;;;;;;;1999.90;999.90;;;14.30;99.90;;;;;;5051802;28;20258;-68
2023/05/12 06:06:04;;;;;;;1999.90;999.90;;;14.30;99.90;;;;;;5051489;28;20171;-68
2023/05/12 06:08:29;;;;;;;1999.90;999.90;;;14.30;99.90;;;;;;5051514;28;20222;-68
2023/05/12 06:10:55;;;;;;;1999.90;999.90;;;14.30;99.90;;;;;;5051266;28;20186;-69
2023/05/12 06:13:21;;;;;;;1999.90;999.90;;;14.40;99.90;;;;;;5051578;28;20209;-69
2023/05/12 06:15:46;;;;;;;1999.90;999.90;;;14.30;99.90;;;;;;5054131;28;20188;-68
2023/05/12 06:18:12;;;;;;;1999.90;999.90;;;14.40;99.90;;;;;;5055323;28;20162;-68
2023/05/12 06:20:37;;;;;;;1999.90;999.90;;;14.40;99.90;;;;;;5055199;28;20673;-69
2023/05/12 06:23:03;;;;;;;1999.90;999.90;;;14.50;99.90;;;;;;5054751;28;20191;-68
2023/05/12 06:25:28;;;;;;;1999.90;999.90;;;14.60;99.90;;;;;;5055104;28;20677;-70
2023/05/12 06:27:54;;;;;;;1999.90;999.90;;;14.60;99.90;;;;;;5055266;28;20198;-69
2023/05/12 06:30:20;;;;;;;1999.90;999.90;;;14.60;99.90;;;;;;5055036;28;20171;-69
2023/05/12 06:32:45;;;;;;;1999.90;999.90;;;14.60;99.90;;;;;;5054568;28;20568;-68
2023/05/12 06:35:11;;;;;;;1999.90;999.90;;;14.60;99.90;;;;;;5054995;28;20193;-69
2023/05/12 06:37:37;;;;;;;1999.90;999.90;;;14.50;99.90;;;;;;5055019;28;20669;-69
2023/05/12 06:40:03;;;;;;;1999.90;999.90;;;14.50;99.90;;;;;;5054657;28;20204;-70
2023/05/12 06:42:28;;;;;;;1999.90;999.90;;;14.50;99.90;;;;;;5054380;28;20441;-69
2023/05/12 06:44:54;;;;;;;1999.90;999.90;;;14.60;99.90;;;;;;5054778;28;20427;-69
2023/05/12 06:47:19;;;;;;;1999.90;999.90;;;14.70;99.90;;;;;;5054699;28;20171;-69
2023/05/12 06:49:45;;;;;;;1999.90;999.90;;;14.80;99.90;;;;;;5054739;28;20199;-69
2023/05/12 06:52:11;;;;;;;1999.90;999.90;;;14.80;99.90;;;;;;5054327;28;20654;-70
2023/05/12 06:54:37;;;;;;;1999.90;999.90;;;14.90;99.90;;;;;;5054544;28;20200;-69
2023/05/12 06:57:03;;;;;;;1999.90;999.90;;;14.90;99.90;;;;;;5054470;28;20180;-70
2023/05/12 06:59:29;;;;;;;1999.90;999.90;;;15.00;99.90;;;;;;5054508;28;20453;-70
2023/05/12 07:01:55;;;;;;;1999.90;999.90;;;15.20;99.90;;;;;;5054012;28;20404;-69
2023/05/12 07:04:21;;;;;;;1999.90;999.90;;;15.00;99.90;;;;;;5054400;28;20405;-69
2023/05/12 07:06:47;;;;;;;1999.90;999.90;;;15.00;99.90;;;;;;5054241;28;20173;-69
2023/05/12 07:09:13;;;;;;;1999.90;999.90;;;15.10;99.90;;;;;;5054224;28;20409;-69
2023/05/12 07:11:38;;;;;;;1999.90;999.90;;;15.30;99.90;;;;;;5054091;28;20187;-70
2023/05/12 07:14:04;;;;;;;1999.90;999.90;;;15.30;99.90;;;;;;5054214;28;20407;-68
2023/05/12 07:16:31;;;;;;;1999.90;999.90;;;15.30;99.90;;;;;;5054186;28;20199;-69
2023/05/12 07:18:56;;;;;;;1999.90;999.90;;;15.40;99.90;;;;;;5053992;28;20197;-70
2023/05/12 07:21:23;;;;;;;1999.90;999.90;;;15.50;99.90;;;;;;5053816;28;20404;-69
2023/05/12 07:23:48;;;;;;;1999.90;999.90;;;15.60;99.90;;;;;;5053791;28;20192;-70
2023/05/12 07:26:15;;;;;;;1999.90;999.90;;;15.60;99.90;;;;;;5053432;28;20893;-69
2023/05/12 07:28:41;;;;;;;1999.90;999.90;;;15.60;99.90;;;;;;5053926;28;20173;-69
2023/05/12 07:31:07;;;;;;;1999.90;999.90;;;15.60;99.90;;;;;;5053571;28;20921;-68
2023/05/12 07:33:34;;;;;;;1999.90;999.90;;;15.60;99.90;;;;;;5053874;28;20606;-68
2023/05/12 07:36:01;;;;;;;1999.90;999.90;;;15.60;99.90;;;;;;5053817;28;20266;-69
2023/05/12 07:38:27;;;;;;;1999.90;999.90;;;15.50;99.90;;;;;;5053490;28;20426;-69
2023/05/12 07:40:53;;;;;;;1999.90;999.90;;;15.50;99.90;;;;;;5053645;28;20421;-69
2023/05/12 07:43:19;;;;;;;1999.90;999.90;;;15.50;99.90;;;;;;5053533;28;21163;-69
2023/05/12 07:45:45;;;;;;;1999.90;999.90;;;15.50;99.90;;;;;;5053697;28;20166;-69
2023/05/12 07:48:10;;;;;;;1999.90;999.90;;;15.60;99.90;;;;;;5053645;28;20178;-69
2023/05/12 07:50:36;;;;;;;1999.90;999.90;;;15.60;99.90;;;;;;5053497;28;20436;-70
2023/05/12 07:53:03;;;;;;;1999.90;999.90;;;15.80;99.90;;;;;;5053032;28;20438;-69
2023/05/12 07:55:29;;;;;;;1999.90;999.90;;;15.90;99.90;;;;;;5035775;28;20175;-70
2023/05/12 07:57:55;;;;;;;1999.90;999.90;;;16.10;99.90;;;;;;5053435;28;20417;-69
2023/05/12 08:00:21;;;;;;;1999.90;999.90;;;16.20;99.90;;;;;;5053371;28;20938;-69
2023/05/12 08:02:46;;;;;;;1999.90;999.90;;;16.30;99.90;;;;;;5053109;28;20238;-69
2023/05/12 08:05:12;;;;;;;1999.90;999.90;;;16.50;99.90;;;;;;5053299;28;20974;-69
2023/05/12 08:07:38;;;;;;;1999.90;999.90;;;16.50;99.90;;;;;;5049598;28;20162;-69
2023/05/12 08:10:05;;;;;;;1999.90;999.90;;;16.50;99.90;;;;;;5028220;28;20411;-69
2023/05/12 08:12:34;;;;;;;1999.90;999.90;;;16.60;99.90;;;;;;5032602;28;20466;-69
2023/05/12 08:14:59;;;;;;;1999.90;999.90;;;16.60;99.90;;;;;;5033338;28;20422;-68
2023/05/12 08:17:25;;;;;;;1999.90;999.90;;;16.70;99.90;;;;;;5033192;28;20903;-69
2023/05/12 08:19:50;;;;;;;1999.90;999.90;;;16.70;99.90;;;;;;5032952;28;20664;-69
2023/05/12 08:22:16;;;;;;;1999.90;999.90;;;16.80;99.90;;;;;;5032689;28;20190;-70
2023/05/12 08:24:42;;;;;;;1999.90;999.90;;;16.70;99.90;;;;;;5032993;28;20586;-69
2023/05/12 08:27:08;;;;;;;1999.90;999.90;;;16.80;99.90;;;;;;5032963;28;20176;-69
2023/05/12 08:29:33;;;;;;;1999.90;999.90;;;16.90;99.90;;;;;;5032886;28;20260;-69
2023/05/12 08:31:59;;;;;;;1999.90;999.90;;;17.00;99.90;;;;;;5032542;28;20271;-69
2023/05/12 08:34:25;;;;;;;1999.90;999.90;;;17.20;99.90;;;;;;5032823;28;20207;-70
2023/05/12 08:36:54;;;;;;;1999.90;999.90;;;17.40;99.90;;;;;;5032813;28;20203;-69
2023/05/12 08:39:20;;;;;;;1999.90;999.90;;;17.60;99.90;;;;;;5031719;28;20410;-68
2023/05/12 08:42:03;;;;;;;1999.90;999.90;;;17.60;99.90;;;;;;5032303;28;20948;-69
2023/05/12 08:44:30;;;;;;;1999.90;999.90;;;17.90;99.90;;;;;;5032608;28;20402;-70
2023/05/12 08:46:58;;;;;;;1999.90;999.90;;;18.00;99.90;;;;;;5032628;28;20453;-69
2023/05/12 08:49:28;;;;;;;1999.90;999.90;;;18.10;99.90;;;;;;5032457;28;20951;-69
2023/05/12 08:51:55;;;;;;;1999.90;999.90;;;18.20;99.90;;;;;;5032244;28;20473;-69
2023/05/12 08:54:22;;;;;;;1999.90;999.90;;;18.30;99.90;;;;;;5032528;28;20414;-68
2023/05/12 08:56:49;;;;;;;1999.90;999.90;;;18.20;99.90;;;;;;5032399;28;20406;-69
2023/05/12 08:59:15;;;;;;;1999.90;999.90;;;18.30;99.90;;;;;;5032310;28;20507;-69
2023/05/12 09:01:42;;;;;;;1999.90;999.90;;;18.30;99.90;;;;;;5032024;28;20984;-69
2023/05/12 09:04:08;;;;;;;1999.90;999.90;;;18.30;99.90;;;;;;5032275;28;20499;-69
2023/05/12 09:06:34;;;;;;;1999.90;999.90;;;18.30;99.90;;;;;;5043387;28;20508;-71
2023/05/12 09:09:00;;;;;;;1999.90;999.90;;;18.30;99.90;;;;;;5044884;28;20188;-71
2023/05/12 09:11:25;;;;;;;1999.90;999.90;;;18.40;99.90;;;;;;5047181;28;20424;-71
2023/05/12 09:13:59;;;;;;;1999.90;999.90;;;18.40;99.90;;;;;;5048261;28;20523;-69
2023/05/12 09:16:28;;;;;;;1999.90;999.90;;;18.50;99.90;;;;;;5046973;28;20189;-69
2023/05/12 09:18:56;;;;;;;1999.90;999.90;;;18.70;99.90;;;;;;5047398;28;20976;-70
2023/05/12 09:21:23;;;;;;;1999.90;999.90;;;18.90;99.90;;;;;;5046983;28;20415;-70
2023/05/12 09:24:05;;;;;;;1999.90;999.90;;;19.20;99.90;;;;;;5047700;28;20427;-68
2023/05/12 09:26:48;;;;;;;1999.90;999.90;;;19.50;99.90;;;;;;5048200;28;20398;-70
2023/05/12 09:29:15;;;;;;;1999.90;999.90;;;19.40;99.90;;;;;;5047396;28;20427;-71
2023/05/12 09:31:53;;;;;;;1999.90;999.90;;;19.40;99.90;;;;;;5047182;28;20419;-69
2023/05/12 09:34:27;;;;;;;1999.90;999.90;;;19.40;99.90;;;;;;5047960;28;20890;-68
2023/05/12 09:36:58;;;;;;;1999.90;999.90;;;19.30;99.90;;;;;;5046926;28;20417;-69
2023/05/12 09:39:24;;;;;;;1999.90;999.90;;;19.20;99.90;;;;;;5026882;28;20453;-68
2023/05/12 09:41:53;;;;;;;1999.90;999.90;;;19.20;99.90;;;;;;5026865;28;20425;-69
2023/05/12 09:44:19;;;;;;;1999.90;999.90;;;19.40;99.90;;;;;;5027804;28;20424;-72
2023/05/12 09:46:46;;;;;;;1999.90;999.90;;;19.60;99.90;;;;;;5027060;28;20404;-69
2023/05/12 09:49:16;;;;;;;1999.90;999.90;;;19.90;99.90;;;;;;5027263;28;20425;-69
2023/05/12 09:51:42;;;;;;;1999.90;999.90;;;20.00;99.90;;;;;;5031164;28;20968;-72
2023/05/12 09:54:08;;;;;;;1999.90;999.90;;;20.10;99.90;;;;;;5031256;28;20422;-69
2023/05/12 09:56:36;;;;;;;1999.90;999.90;;;20.00;99.90;;;;;;5030986;28;20180;-69
2023/05/12 09:59:03;;;;;;;1999.90;999.90;;;20.00;99.90;;;;;;5031233;28;20282;-69
2023/05/12 10:01:29;;;;;;;1999.90;999.90;;;20.20;99.90;;;;;;5031081;28;20416;-69
2023/05/12 10:03:56;;;;;;;1999.90;999.90;;;20.40;99.90;;;;;;5030863;28;20508;-70
2023/05/12 10:06:41;;;;;;;1999.90;999.90;;;20.40;99.90;;;;;;5031036;28;20421;-72
2023/05/12 10:09:24;;;;;;;1999.90;999.90;;;20.50;99.90;;;;;;5030738;28;20428;-69
2023/05/12 10:11:50;;;;;;;1999.90;999.90;;;20.50;99.90;;;;;;5030364;28;20420;-69
2023/05/12 10:14:16;;;;;;;1999.90;999.90;;;20.50;99.90;;;;;;5030531;28;20420;-70
2023/05/12 10:16:45;;;;;;;1999.90;999.90;;;20.50;99.90;;;;;;5031533;28;20415;-69
2023/05/12 10:19:12;;;;;;;1999.90;999.90;;;20.70;99.90;;;;;;5030546;28;20513;-69
2023/05/12 10:21:40;;;;;;;1999.90;999.90;;;20.90;99.90;;;;;;5029896;28;20512;-70
2023/05/12 10:24:06;;;;;;;1999.90;999.90;;;20.90;99.90;;;;;;5031741;28;20441;-68
2023/05/12 10:26:33;;;;;;;1999.90;999.90;;;20.80;99.90;;;;;;5030838;28;20476;-70
2023/05/12 10:29:00;;;;;;;1999.90;999.90;;;20.80;99.90;;;;;;5030446;28;20550;-69
2023/05/12 10:31:26;;;;;;;1999.90;999.90;;;20.70;99.90;;;;;;5030991;28;20437;-70
2023/05/12 10:33:59;;;;;;;1999.90;999.90;;;20.40;99.90;;;;;;5030623;28;20441;-69
2023/05/12 10:36:25;;;;;;;1999.90;999.90;;;20.60;99.90;;;;;;5030267;28;20936;-69
2023/05/12 10:38:51;;;;;;;1999.90;999.90;;;20.60;99.90;;;;;;5030260;28;20449;-71
2023/05/12 10:41:28;;;;;;;1999.90;999.90;;;20.70;99.90;;;;;;5030922;28;20437;-69
2023/05/12 10:43:54;;;;;;;1999.90;999.90;;;20.80;99.90;;;;;;5030742;28;20435;-69
2023/05/12 10:46:21;;;;;;;1999.90;999.90;;;20.90;99.90;;;;;;5030384;28;20454;-69
2023/05/12 10:49:02;;;;;;;1999.90;999.90;;;21.10;99.90;;;;;;5030393;28;20180;-70
2023/05/12 10:51:30;;;;;;;1999.90;999.90;;;21.30;99.90;;;;;;5029278;28;20427;-69
2023/05/12 10:53:59;;;;;;;1999.90;999.90;;;21.50;99.90;;;;;;5030817;28;20463;-70
2023/05/12 10:56:30;;;;;;;1999.90;999.90;;;21.50;99.90;;;;;;5030659;28;20448;-70
2023/05/12 10:59:10;;;;;;;1999.90;999.90;;;21.50;99.90;;;;;;5029660;28;20540;-69
2023/05/12 11:01:36;;;;;;;1999.90;999.90;;;21.60;99.90;;;;;;5029062;28;20412;-69
2023/05/12 11:04:13;;;;;;;1999.90;999.90;;;21.70;99.90;;;;;;5029770;28;20433;-69
2023/05/12 11:06:39;;;;;;;1999.90;999.90;;;21.80;99.90;;;;;;5029243;28;20179;-69
2023/05/12 11:09:05;;;;;;;1999.90;999.90;;;22.00;99.90;;;;;;5030350;28;20491;-70
2023/05/12 11:11:31;;;;;;;1999.90;999.90;;;22.20;99.90;;;;;;5029826;28;21026;-70
2023/05/12 11:13:57;;;;;;;1999.90;999.90;;;22.30;99.90;;;;;;5029375;28;20207;-69
2023/05/12 11:16:23;;;;;;;1999.90;999.90;;;22.30;99.90;;;;;;5030630;28;20411;-69
2023/05/12 11:19:00;;;;;;;1999.90;999.90;;;22.10;99.90;;;;;;5029658;28;20522;-70
2023/05/12 11:21:25;;;;;;;1999.90;999.90;;;22.20;99.90;;;;;;5029063;28;20797;-70
2023/05/12 11:23:51;;;;;;;1999.90;999.90;;;22.50;99.90;;;;;;5029716;28;20537;-70
2023/05/12 11:26:20;;;;;;;1999.90;999.90;;;22.90;99.90;;;;;;5030432;28;20267;-70
2023/05/12 11:28:46;;;;;;;1999.90;999.90;;;23.10;99.90;;;;;;5029455;28;20653;-70
2023/05/12 11:31:18;;;;;;;1999.90;999.90;;;23.40;99.90;;;;;;5029408;28;20457;-70
2023/05/12 11:33:44;;;;;;;1999.90;999.90;;;23.70;99.90;;;;;;5030117;28;20280;-71
2023/05/12 11:36:10;;;;;;;1999.90;999.90;;;23.80;99.90;;;;;;5029504;28;20510;-70
2023/05/12 11:38:35;;;;;;;1999.90;999.90;;;23.90;99.90;;;;;;5029481;28;20246;-70
2023/05/12 11:41:01;;;;;;;1999.90;999.90;;;23.80;99.90;;;;;;5029856;28;20230;-70
2023/05/12 11:43:27;;;;;;;1999.90;999.90;;;23.80;99.90;;;;;;5029135;28;20192;-70
2023/05/12 11:45:56;;;;;;;1999.90;999.90;;;23.80;99.90;;;;;;5029171;28;20271;-70
2023/05/12 11:48:34;;;;;;;1999.90;999.90;;;23.80;99.90;;;;;;5030067;28;20467;-71
2023/05/12 11:51:00;;;;;;;1999.90;999.90;;;23.80;98.40;;;;;;5029267;28;20969;-71
2023/05/12 11:53:25;;;;;;;1999.90;999.90;;;23.60;99.90;;;;;;5029528;28;20434;-70
2023/05/12 11:55:55;;;;;;;1999.90;999.90;;;23.40;99.90;;;;;;5029284;28;20184;-70